KTHV/THV METAR and TAF weather

Enter ICAO airport designator
Station Type Date Time Source
KTHV METAR 2024/04/15 08:53 UTC NOAA

KTHV 150853Z AUTO 00000KT 10SM SCT085 SCT100 14/13 A2976 RMK AO2 RAB14E27 SLP078 P0001 60004 T01440133 53001


Station Type Date Time Source
KTHV Decoded METAR 2024/04/15 08:53 UTC NOAA

YORK AIRPORT, PA, United States (KTHV) 39-55N 076-53W 144M
Apr 15, 2024 - 04:53 AM EDT / 2024.04.15 0853 UTC
Wind: Calm:0
Visibility: 10 mile(s):0
Sky conditions: partly cloudy
Precipitation last hour: 0.01 inches
Temperature: 57.9 F (14.4 C)
Dew Point: 55.9 F (13.3 C)
Relative Humidity: 93%
Pressure (altimeter): 29.76 in. Hg (1007 hPa)
Pressure tendency: 0.00 inches (0.1 hPa) higher than three hours ago
ob: KTHV 150853Z AUTO 00000KT 10SM SCT085 SCT100 14/13 A2976 RMK AO2 RAB14E27 SLP078 P0001 60004 T01440133 53001
cycle: 9

Station Type Date Time Source
KTHV TAF UTC NOAA

Error!

Example: see airport list